createdAt,value
2018-03-02T00:00:08.391Z,-1.51
2018-03-02T00:01:08.399Z,-1.47
2018-03-02T00:02:08.388Z,-1.48
2018-03-02T00:03:08.396Z,-1.51
2018-03-02T00:04:08.569Z,-1.55
2018-03-02T00:05:08.411Z,-1.57
2018-03-02T00:06:08.407Z,-1.57
2018-03-02T00:07:08.424Z,-1.58
2018-03-02T00:08:08.419Z,-1.6
2018-03-02T00:09:08.447Z,-1.64
2018-03-02T00:10:08.428Z,-1.64
2018-03-02T00:11:08.426Z,-1.7
2018-03-02T00:12:08.423Z,-1.71
2018-03-02T00:13:08.433Z,-1.72
2018-03-02T00:14:08.418Z,-1.78
2018-03-02T00:15:08.440Z,-1.75
2018-03-02T00:16:08.421Z,-1.76
2018-03-02T00:17:08.452Z,-1.79
2018-03-02T00:18:08.426Z,-1.79
2018-03-02T00:19:08.448Z,-1.83
2018-03-02T00:20:08.434Z,-1.83
2018-03-02T00:21:08.662Z,-1.83
2018-03-02T00:22:08.781Z,-1.86
2018-03-02T00:23:08.437Z,-1.86
2018-03-02T00:24:08.449Z,-1.88
2018-03-02T00:25:08.440Z,-1.86
2018-03-02T00:26:08.438Z,-1.88
2018-03-02T00:27:08.465Z,-1.91
2018-03-02T00:28:08.448Z,-1.92
2018-03-02T00:29:08.458Z,-1.91
2018-03-02T00:30:08.462Z,-1.88
2018-03-02T00:31:08.608Z,-1.85
2018-03-02T00:32:08.621Z,-1.85
2018-03-02T00:33:08.453Z,-1.89
2018-03-02T00:34:08.457Z,-1.85
2018-03-02T00:35:08.500Z,-1.88
2018-03-02T00:36:08.463Z,-1.92
2018-03-02T00:37:08.487Z,-1.99
2018-03-02T00:38:08.458Z,-1.98
2018-03-02T00:39:08.473Z,-2.02
2018-03-02T00:40:08.485Z,-2.05
2018-03-02T00:41:08.477Z,-2.05
2018-03-02T00:42:08.477Z,-2.05
2018-03-02T00:43:08.485Z,-2.05
2018-03-02T00:44:08.483Z,-2.03
2018-03-02T00:45:08.484Z,-2.06
2018-03-02T00:46:08.716Z,-2.07
2018-03-02T00:47:08.498Z,-2.07
2018-03-02T00:48:08.607Z,-2.06
2018-03-02T00:49:09.507Z,-2.05
2018-03-02T00:50:08.494Z,-2.06
2018-03-02T00:51:08.523Z,-2.07
2018-03-02T00:52:08.507Z,-2.07
2018-03-02T00:53:08.512Z,-2.09
2018-03-02T00:54:08.521Z,-2.07
2018-03-02T00:55:08.524Z,-2.06
2018-03-02T00:56:08.525Z,-2.06
2018-03-02T00:57:08.518Z,-2.09
2018-03-02T00:58:08.524Z,-2.09
2018-03-02T00:59:08.523Z,-2.1
2018-03-02T01:00:08.535Z,-2.14
2018-03-02T01:01:08.523Z,-2.14
2018-03-02T01:02:08.966Z,-2.13
2018-03-02T01:03:08.552Z,-2.13
2018-03-02T01:04:08.544Z,-2.16
2018-03-02T01:05:08.531Z,-2.16
2018-03-02T01:06:08.545Z,-2.16
2018-03-02T01:07:08.552Z,-2.17
2018-03-02T01:08:08.543Z,-2.2
2018-03-02T01:09:08.559Z,-2.24
2018-03-02T01:10:08.555Z,-2.23
2018-03-02T01:11:08.565Z,-2.23
2018-03-02T01:12:08.579Z,-2.24
2018-03-02T01:13:08.564Z,-2.27
2018-03-02T01:14:08.578Z,-2.26
2018-03-02T01:15:08.571Z,-2.26
2018-03-02T01:16:08.578Z,-2.31
2018-03-02T01:17:08.579Z,-2.31
2018-03-02T01:18:08.608Z,-2.33
2018-03-02T01:19:08.570Z,-2.31
2018-03-02T01:20:08.571Z,-2.31
2018-03-02T01:21:08.578Z,-2.34
2018-03-02T01:22:08.588Z,-2.36
2018-03-02T01:23:08.617Z,-2.41
2018-03-02T01:24:08.595Z,-2.43
2018-03-02T01:25:08.605Z,-2.43
2018-03-02T01:26:08.604Z,-2.43
2018-03-02T01:27:08.654Z,-2.43
2018-03-02T01:28:08.606Z,-2.44
2018-03-02T01:29:08.615Z,-2.44
2018-03-02T01:30:08.617Z,-2.48
2018-03-02T01:31:08.624Z,-2.5
2018-03-02T01:32:08.645Z,-2.48
2018-03-02T01:33:08.623Z,-2.5
2018-03-02T01:34:08.649Z,-2.51
2018-03-02T01:35:08.689Z,-2.53
2018-03-02T01:36:08.907Z,-2.55
2018-03-02T01:37:08.639Z,-2.51
2018-03-02T01:38:08.654Z,-2.47
2018-03-02T01:39:08.646Z,-2.5
2018-03-02T01:40:08.645Z,-2.48
2018-03-02T01:41:08.676Z,-2.53
2018-03-02T01:42:08.648Z,-2.5
2018-03-02T01:43:08.676Z,-2.51
2018-03-02T01:44:08.660Z,-2.5
2018-03-02T01:45:08.666Z,-2.5
2018-03-02T01:46:08.685Z,-2.5
2018-03-02T01:47:08.679Z,-2.53
2018-03-02T01:48:08.674Z,-2.55
2018-03-02T01:50:20.878Z,-2.62
2018-03-02T01:51:08.710Z,-2.61
2018-03-02T01:52:08.672Z,-2.57
2018-03-02T01:53:08.680Z,-2.58
2018-03-02T01:54:08.688Z,-2.6
2018-03-02T01:55:08.694Z,-2.62
2018-03-02T01:56:08.811Z,-2.65
2018-03-02T01:57:08.693Z,-2.69
2018-03-02T01:58:08.690Z,-2.68
2018-03-02T01:59:08.708Z,-2.69
2018-03-02T02:00:08.703Z,-2.74
2018-03-02T02:01:08.730Z,-2.71
2018-03-02T02:02:08.735Z,-2.75
2018-03-02T02:03:08.715Z,-2.75
2018-03-02T02:04:08.721Z,-2.72
2018-03-02T02:05:08.715Z,-2.78
2018-03-02T02:06:08.728Z,-2.79
2018-03-02T02:07:08.745Z,-2.79
2018-03-02T02:08:08.736Z,-2.76
2018-03-02T02:09:09.020Z,-2.81
2018-03-02T02:10:08.744Z,-2.75
2018-03-02T02:11:08.752Z,-2.78
2018-03-02T02:12:08.749Z,-2.81
2018-03-02T02:13:08.762Z,-2.83
2018-03-02T02:14:08.772Z,-2.88
2018-03-02T02:15:08.769Z,-2.86
2018-03-02T02:16:08.782Z,-2.88
2018-03-02T02:18:14.940Z,-2.88
2018-03-02T02:19:08.788Z,-2.83
2018-03-02T02:20:08.814Z,-2.85
2018-03-02T02:21:08.778Z,-2.88
2018-03-02T02:22:08.789Z,-2.83
2018-03-02T02:23:08.793Z,-2.89
2018-03-02T02:24:08.791Z,-2.92
2018-03-02T02:25:08.818Z,-2.9
2018-03-02T02:26:08.796Z,-2.92
2018-03-02T02:27:08.798Z,-2.93
2018-03-02T02:28:08.801Z,-3
2018-03-02T02:29:08.807Z,-3
2018-03-02T02:30:08.816Z,-3.03
2018-03-02T02:31:08.816Z,-3.06
2018-03-02T02:32:08.818Z,-3.04
2018-03-02T02:33:08.814Z,-3.1
2018-03-02T02:34:09.084Z,-3.07
2018-03-02T02:35:08.824Z,-3.07
2018-03-02T02:36:08.815Z,-3.11
2018-03-02T02:37:08.821Z,-3.13
2018-03-02T02:38:08.833Z,-3.14
2018-03-02T02:39:08.871Z,-3.19
2018-03-02T02:40:08.814Z,-3.2
2018-03-02T02:41:08.830Z,-3.2
2018-03-02T02:42:08.840Z,-3.25
2018-03-02T02:43:08.835Z,-3.24
2018-03-02T02:44:08.834Z,-3.2
2018-03-02T02:45:08.846Z,-3.21
2018-03-02T02:46:08.875Z,-3.23
2018-03-02T02:47:08.847Z,-3.27
2018-03-02T02:48:08.853Z,-3.25
2018-03-02T02:49:08.889Z,-3.28
2018-03-02T02:50:08.868Z,-3.3
2018-03-02T02:51:08.877Z,-3.3
2018-03-02T02:52:08.866Z,-3.34
2018-03-02T02:53:08.864Z,-3.34
2018-03-02T02:54:08.884Z,-3.34
2018-03-02T02:55:08.880Z,-3.35
2018-03-02T02:56:08.908Z,-3.35
2018-03-02T02:57:08.886Z,-3.39
2018-03-02T02:58:08.898Z,-3.38
2018-03-02T02:59:08.917Z,-3.38
2018-03-02T03:00:08.897Z,-3.37
2018-03-02T03:01:08.917Z,-3.35
2018-03-02T03:03:09.027Z,-3.37
2018-03-02T03:04:08.938Z,-3.39
2018-03-02T03:05:08.920Z,-3.42
2018-03-02T03:06:08.916Z,-3.42
2018-03-02T03:07:08.921Z,-3.44
2018-03-02T03:08:08.916Z,-3.47
2018-03-02T03:09:08.933Z,-3.47
2018-03-02T03:10:08.928Z,-3.49
2018-03-02T03:11:08.938Z,-3.51
2018-03-02T03:12:08.958Z,-3.55
2018-03-02T03:13:08.929Z,-3.51
2018-03-02T03:14:08.928Z,-3.54
2018-03-02T03:15:08.945Z,-3.56
2018-03-02T03:16:08.937Z,-3.55
2018-03-02T03:17:09.218Z,-3.58
2018-03-02T03:18:08.945Z,-3.55
2018-03-02T03:20:30.022Z,-3.58
2018-03-02T03:21:08.952Z,-3.56
2018-03-02T03:22:08.986Z,-3.59
2018-03-02T03:23:08.963Z,-3.59
2018-03-02T03:24:08.970Z,-3.62
2018-03-02T03:25:08.962Z,-3.59
2018-03-02T03:26:08.974Z,-3.56
2018-03-02T03:27:09.004Z,-3.56
2018-03-02T03:28:08.975Z,-3.54
2018-03-02T03:29:09.006Z,-3.55
2018-03-02T03:30:08.995Z,-3.54
2018-03-02T03:31:08.999Z,-3.58
2018-03-02T03:32:08.998Z,-3.6
2018-03-02T03:33:09.268Z,-3.63
2018-03-02T03:34:09.001Z,-3.65
2018-03-02T03:35:09.028Z,-3.68
2018-03-02T03:36:09.002Z,-3.63
2018-03-02T03:37:09.006Z,-3.59
2018-03-02T03:38:09.313Z,-3.62
2018-03-02T03:39:09.005Z,-3.6
2018-03-02T03:40:08.999Z,-3.59
2018-03-02T03:41:08.992Z,-3.6
2018-03-02T03:42:09.215Z,-3.63
2018-03-02T03:43:09.021Z,-3.63
2018-03-02T03:44:09.045Z,-3.75
2018-03-02T03:45:09.299Z,-3.75
2018-03-02T03:46:09.018Z,-3.73
2018-03-02T03:47:09.016Z,-3.76
2018-03-02T03:48:09.026Z,-3.76
2018-03-02T03:49:09.031Z,-3.79
2018-03-02T03:50:09.076Z,-3.79
2018-03-02T03:51:09.043Z,-3.75
2018-03-02T03:52:09.225Z,-3.78
2018-03-02T03:53:09.038Z,-3.76
2018-03-02T03:54:09.032Z,-3.76
2018-03-02T03:55:09.068Z,-3.78
2018-03-02T03:56:09.049Z,-3.78
2018-03-02T03:57:09.054Z,-3.72
2018-03-02T03:58:09.040Z,-3.78
2018-03-02T03:59:09.195Z,-3.73
2018-03-02T04:00:09.137Z,-3.73
2018-03-02T04:01:09.049Z,-3.76
2018-03-02T04:02:09.054Z,-3.79
2018-03-02T04:03:09.062Z,-3.79
2018-03-02T04:04:09.072Z,-3.8
2018-03-02T04:06:15.364Z,-3.79
2018-03-02T04:07:09.068Z,-3.8
2018-03-02T04:08:09.126Z,-3.79
2018-03-02T04:09:09.076Z,-3.84
2018-03-02T04:10:09.091Z,-3.8
2018-03-02T04:11:09.075Z,-3.83
2018-03-02T04:12:09.098Z,-3.82
2018-03-02T04:13:09.115Z,-3.84
2018-03-02T04:14:09.108Z,-3.83
2018-03-02T04:16:09.182Z,-3.86
2018-03-02T04:17:09.122Z,-3.89
2018-03-02T04:18:09.119Z,-3.87
2018-03-02T04:19:09.119Z,-3.87
2018-03-02T04:20:09.169Z,-3.84
2018-03-02T04:21:09.140Z,-3.86
2018-03-02T04:22:09.491Z,-3.84
2018-03-02T04:23:09.139Z,-3.9
2018-03-02T04:24:09.140Z,-3.92
2018-03-02T04:25:09.165Z,-3.89
2018-03-02T04:26:09.141Z,-3.89
2018-03-02T04:27:09.180Z,-3.89
2018-03-02T04:28:09.168Z,-3.86
2018-03-02T04:29:09.163Z,-3.89
2018-03-02T04:30:09.165Z,-3.87
2018-03-02T04:31:09.170Z,-3.92
2018-03-02T04:32:09.193Z,-3.92
2018-03-02T04:33:09.479Z,-3.9
2018-03-02T04:34:09.183Z,-3.92
2018-03-02T04:35:09.173Z,-3.92
2018-03-02T04:36:09.181Z,-3.99
2018-03-02T04:37:09.186Z,-4.06
2018-03-02T04:38:09.204Z,-4.09
2018-03-02T04:39:09.186Z,-4.04
2018-03-02T04:40:09.195Z,-4.04
2018-03-02T04:41:09.204Z,-4.04
2018-03-02T04:42:09.198Z,-4.04
2018-03-02T04:43:09.234Z,-4.01
2018-03-02T04:45:15.391Z,-3.96
2018-03-02T04:46:09.211Z,-3.99
2018-03-02T04:47:09.210Z,-3.97
2018-03-02T04:48:09.225Z,-4.03
2018-03-02T04:49:09.205Z,-4.03
2018-03-02T04:50:09.218Z,-4.03
2018-03-02T04:51:09.215Z,-4.09
2018-03-02T04:52:09.241Z,-4.1
2018-03-02T04:53:09.208Z,-4.09
2018-03-02T04:54:09.216Z,-4.11
2018-03-02T04:55:09.220Z,-4.14
2018-03-02T04:56:09.235Z,-4.14
2018-03-02T04:57:09.245Z,-4.11
2018-03-02T04:58:09.242Z,-4.13
2018-03-02T04:59:09.232Z,-4.13
2018-03-02T05:00:09.232Z,-4.09
2018-03-02T05:01:09.229Z,-4.1
2018-03-02T05:03:15.631Z,-4.18
2018-03-02T05:04:09.252Z,-4.15
2018-03-02T05:05:09.245Z,-4.2
2018-03-02T05:06:09.250Z,-4.17
2018-03-02T05:07:09.256Z,-4.17
2018-03-02T05:08:09.262Z,-4.2
2018-03-02T05:09:09.256Z,-4.18
2018-03-02T05:10:09.263Z,-4.17
2018-03-02T05:11:09.267Z,-4.17
2018-03-02T05:12:09.445Z,-4.21
2018-03-02T05:13:09.262Z,-4.17
2018-03-02T05:14:09.290Z,-4.17
2018-03-02T05:15:09.283Z,-4.18
2018-03-02T05:16:09.284Z,-4.15
2018-03-02T05:17:09.277Z,-4.15
2018-03-02T05:18:09.298Z,-4.13
2018-03-02T05:19:09.311Z,-4.11
2018-03-02T05:20:09.295Z,-4.11
2018-03-02T05:21:09.377Z,-4.15
2018-03-02T05:22:09.310Z,-4.11
2018-03-02T05:23:09.296Z,-4.2
2018-03-02T05:24:09.320Z,-4.18
2018-03-02T05:25:09.317Z,-4.18
2018-03-02T05:26:09.563Z,-4.18
2018-03-02T05:27:09.300Z,-4.14
2018-03-02T05:28:09.297Z,-4.11
2018-03-02T05:29:09.303Z,-4.14
2018-03-02T05:30:09.325Z,-4.15
2018-03-02T05:31:09.336Z,-4.17
2018-03-02T05:32:09.321Z,-4.15
2018-03-02T05:33:09.313Z,-4.14
2018-03-02T05:34:09.322Z,-4.17
2018-03-02T05:35:09.351Z,-4.18
2018-03-02T05:36:09.350Z,-4.17
2018-03-02T05:37:09.359Z,-4.04
2018-03-02T05:38:09.331Z,-4.09
2018-03-02T05:39:09.353Z,-4.13
2018-03-02T05:40:09.341Z,-4.13
2018-03-02T05:41:09.609Z,-4.14
2018-03-02T05:42:09.376Z,-4.13
2018-03-02T05:43:09.360Z,-4.15
2018-03-02T05:44:09.357Z,-4.15
2018-03-02T05:45:09.372Z,-4.17
2018-03-02T05:46:09.368Z,-4.21
2018-03-02T05:47:09.412Z,-4.18
2018-03-02T05:48:09.401Z,-4.17
2018-03-02T05:49:09.373Z,-4.2
2018-03-02T05:50:09.368Z,-4.2
2018-03-02T05:51:09.370Z,-4.21
2018-03-02T05:52:09.380Z,-4.18
2018-03-02T05:53:09.552Z,-4.2
2018-03-02T05:54:09.385Z,-4.24
2018-03-02T05:55:09.380Z,-4.25
2018-03-02T05:56:09.384Z,-4.24
2018-03-02T05:57:09.391Z,-4.24
2018-03-02T05:59:09.453Z,-4.21
2018-03-02T06:00:09.452Z,-4.21
2018-03-02T06:01:09.413Z,-4.2
2018-03-02T06:02:09.556Z,-4.15
2018-03-02T06:03:09.420Z,-4.2
2018-03-02T06:04:09.414Z,-4.22
2018-03-02T06:05:09.436Z,-4.24
2018-03-02T06:06:09.412Z,-4.22
2018-03-02T06:07:09.476Z,-4.22
2018-03-02T06:08:09.421Z,-4.21
2018-03-02T06:09:09.433Z,-4.24
2018-03-02T06:10:09.690Z,-4.24
2018-03-02T06:11:09.432Z,-4.24
2018-03-02T06:12:09.442Z,-4.21
2018-03-02T06:13:09.443Z,-4.2
2018-03-02T06:14:09.442Z,-4.2
2018-03-02T06:15:09.475Z,-4.2
2018-03-02T06:16:09.469Z,-4.18
2018-03-02T06:17:09.483Z,-4.2
2018-03-02T06:18:09.481Z,-4.21
2018-03-02T06:19:09.490Z,-4.2
2018-03-02T06:20:09.463Z,-4.2
2018-03-02T06:21:09.509Z,-4.18
2018-03-02T06:22:09.482Z,-4.22
2018-03-02T06:23:09.479Z,-4.25
2018-03-02T06:24:09.477Z,-4.22
2018-03-02T06:25:09.486Z,-4.22
2018-03-02T06:26:09.657Z,-4.31
2018-03-02T06:27:09.475Z,-4.28
2018-03-02T06:28:09.490Z,-4.27
2018-03-02T06:29:09.485Z,-4.28
2018-03-02T06:30:09.499Z,-4.27
2018-03-02T06:31:09.533Z,-4.29
2018-03-02T06:32:09.493Z,-4.29
2018-03-02T06:33:09.509Z,-4.25
2018-03-02T06:34:09.502Z,-4.25
2018-03-02T06:35:09.507Z,-4.27
2018-03-02T06:36:09.558Z,-4.29
2018-03-02T06:38:09.609Z,-4.27
2018-03-02T06:39:09.521Z,-4.25
2018-03-02T06:40:09.556Z,-4.25
2018-03-02T06:41:09.549Z,-4.27
2018-03-02T06:42:09.539Z,-4.31
2018-03-02T06:43:09.561Z,-4.28
2018-03-02T06:44:09.555Z,-4.24
2018-03-02T06:45:09.546Z,-4.15
2018-03-02T06:46:09.539Z,-4.21
2018-03-02T06:47:09.548Z,-4.21
2018-03-02T06:48:09.553Z,-4.24
2018-03-02T06:49:09.561Z,-4.21
2018-03-02T06:50:09.549Z,-4.2
2018-03-02T06:51:09.576Z,-4.22
2018-03-02T06:52:09.593Z,-4.22
2018-03-02T06:53:09.680Z,-4.18
2018-03-02T06:54:09.579Z,-4.21
2018-03-02T06:55:09.580Z,-4.22
2018-03-02T06:56:09.577Z,-4.24
2018-03-02T06:57:09.635Z,-4.21
2018-03-02T06:58:09.591Z,-4.17
2018-03-02T06:59:09.588Z,-4.17
2018-03-02T07:00:09.593Z,-4.15
2018-03-02T07:01:09.607Z,-4.14
2018-03-02T07:02:09.618Z,-4.11
2018-03-02T07:03:09.594Z,-4.13
2018-03-02T07:04:09.648Z,-4.14
2018-03-02T07:05:09.600Z,-4.11
2018-03-02T07:06:09.607Z,-4.13
2018-03-02T07:07:09.634Z,-4.07
2018-03-02T07:08:09.641Z,-4.07
2018-03-02T07:09:09.619Z,-4.03
2018-03-02T07:10:09.620Z,-4.04
2018-03-02T07:11:09.628Z,-4.07
2018-03-02T07:12:09.648Z,-4.09
2018-03-02T07:13:09.632Z,-4.06
2018-03-02T07:14:09.646Z,-4.06
2018-03-02T07:15:09.636Z,-4.04
2018-03-02T07:16:09.628Z,-4.04
2018-03-02T07:17:09.689Z,-4.03
2018-03-02T07:18:09.641Z,-4.06
2018-03-02T07:19:09.645Z,-4.07
2018-03-02T07:20:09.735Z,-4.09
2018-03-02T07:21:09.657Z,-4.07
2018-03-02T07:22:09.693Z,-4.09
2018-03-02T07:23:09.664Z,-4.06
2018-03-02T07:24:09.671Z,-4.01
2018-03-02T07:25:09.656Z,-3.99
2018-03-02T07:26:09.783Z,-3.97
2018-03-02T07:27:09.673Z,-3.94
2018-03-02T07:28:09.666Z,-3.96
2018-03-02T07:29:09.697Z,-3.99
2018-03-02T07:30:09.720Z,-3.93
2018-03-02T07:31:09.674Z,-3.9
2018-03-02T07:32:09.688Z,-3.92
2018-03-02T07:33:09.688Z,-3.94
2018-03-02T07:34:09.863Z,-3.94
2018-03-02T07:35:09.710Z,-3.97
2018-03-02T07:36:09.706Z,-3.94
2018-03-02T07:37:09.995Z,-3.89
2018-03-02T07:38:09.692Z,-3.87
2018-03-02T07:39:09.729Z,-3.87
2018-03-02T07:40:09.766Z,-3.87
2018-03-02T07:41:09.725Z,-3.86
2018-03-02T07:42:09.716Z,-3.83
2018-03-02T07:43:09.721Z,-3.82
2018-03-02T07:44:09.761Z,-3.82
2018-03-02T07:45:09.727Z,-3.84
2018-03-02T07:46:09.738Z,-3.82
2018-03-02T07:47:09.751Z,-3.83
2018-03-02T07:48:09.743Z,-3.87
2018-03-02T07:49:09.839Z,-3.84
2018-03-02T07:50:09.798Z,-3.83
2018-03-02T07:51:09.740Z,-3.82
2018-03-02T07:52:09.750Z,-3.8
2018-03-02T07:53:09.752Z,-3.78
2018-03-02T07:54:09.756Z,-3.72
2018-03-02T07:55:09.800Z,-3.73
2018-03-02T07:56:09.796Z,-3.73
2018-03-02T07:57:09.767Z,-3.73
2018-03-02T07:58:09.760Z,-3.72
2018-03-02T07:59:09.766Z,-3.72
2018-03-02T08:00:09.775Z,-3.68
2018-03-02T08:01:09.827Z,-3.69
2018-03-02T08:02:09.789Z,-3.76
2018-03-02T08:03:09.798Z,-3.76
2018-03-02T08:04:09.800Z,-3.73
2018-03-02T08:05:09.796Z,-3.71
2018-03-02T08:06:09.829Z,-3.65
2018-03-02T08:07:09.800Z,-3.63
2018-03-02T08:08:09.808Z,-3.63
2018-03-02T08:09:09.824Z,-3.65
2018-03-02T08:10:09.854Z,-3.63
2018-03-02T08:11:09.851Z,-3.66
2018-03-02T08:12:09.828Z,-3.68
2018-03-02T08:13:09.834Z,-3.66
2018-03-02T08:14:09.842Z,-3.69
2018-03-02T08:15:09.863Z,-3.69
2018-03-02T08:16:09.993Z,-3.72
2018-03-02T08:17:09.860Z,-3.69
2018-03-02T08:18:09.870Z,-3.68
2018-03-02T08:19:09.875Z,-3.66
2018-03-02T08:20:09.863Z,-3.69
2018-03-02T08:21:09.889Z,-3.71
2018-03-02T08:22:09.876Z,-3.65
2018-03-02T08:23:09.880Z,-3.65
2018-03-02T08:24:09.893Z,-3.65
2018-03-02T08:25:09.883Z,-3.65
2018-03-02T08:26:10.038Z,-3.63
2018-03-02T08:27:09.928Z,-3.59
2018-03-02T08:28:09.882Z,-3.54
2018-03-02T08:29:09.874Z,-3.54
2018-03-02T08:30:09.881Z,-3.54
2018-03-02T08:31:09.918Z,-3.51
2018-03-02T08:32:09.889Z,-3.45
2018-03-02T08:33:09.892Z,-3.39
2018-03-02T08:34:09.893Z,-3.34
2018-03-02T08:35:09.905Z,-3.3
2018-03-02T08:36:09.935Z,-3.3
2018-03-02T08:37:09.924Z,-3.25
2018-03-02T08:38:09.916Z,-3.3
2018-03-02T08:39:09.920Z,-3.25
2018-03-02T08:40:09.929Z,-3.24
2018-03-02T08:41:09.959Z,-3.25
2018-03-02T08:42:09.941Z,-3.27
2018-03-02T08:43:09.952Z,-3.24
2018-03-02T08:44:09.942Z,-3.24
2018-03-02T08:45:09.948Z,-3.21
2018-03-02T08:46:10.213Z,-3.19
2018-03-02T08:47:09.961Z,-3.2
2018-03-02T08:48:09.971Z,-3.17
2018-03-02T08:49:09.946Z,-3.17
2018-03-02T08:50:09.950Z,-3.14
2018-03-02T08:51:09.979Z,-3.14
2018-03-02T08:52:09.964Z,-3.16
2018-03-02T08:53:09.979Z,-3.14
2018-03-02T08:54:09.978Z,-3.16
2018-03-02T08:55:09.986Z,-3.13
2018-03-02T08:56:10.020Z,-3.1
2018-03-02T08:57:10.001Z,-3.1
2018-03-02T08:58:10.008Z,-3.1
2018-03-02T08:59:10.021Z,-3.04
2018-03-02T09:00:10.210Z,-3
2018-03-02T09:01:10.278Z,-3
2018-03-02T09:02:10.023Z,-2.99
2018-03-02T09:03:10.027Z,-3.02
2018-03-02T09:04:10.022Z,-2.97
2018-03-02T09:05:10.038Z,-2.99
2018-03-02T09:06:10.071Z,-2.96
2018-03-02T09:07:10.026Z,-2.94
2018-03-02T09:08:10.038Z,-2.96
2018-03-02T09:09:10.044Z,-2.99
2018-03-02T09:10:10.048Z,-3.02
2018-03-02T09:11:10.036Z,-3
2018-03-02T09:12:10.063Z,-2.97
2018-03-02T09:13:10.047Z,-2.94
2018-03-02T09:14:10.055Z,-2.94
2018-03-02T09:15:10.069Z,-2.97
2018-03-02T09:16:10.097Z,-2.97
2018-03-02T09:17:10.063Z,-2.96
2018-03-02T09:18:10.069Z,-2.92
2018-03-02T09:19:10.089Z,-2.89
2018-03-02T09:20:10.081Z,-2.86
2018-03-02T09:21:10.086Z,-2.86
2018-03-02T09:22:10.109Z,-2.85
2018-03-02T09:23:10.096Z,-2.81
2018-03-02T09:24:10.094Z,-2.75
2018-03-02T09:25:10.095Z,-2.75
2018-03-02T09:26:10.101Z,-2.74
2018-03-02T09:27:10.112Z,-2.71
2018-03-02T09:28:10.093Z,-2.79
2018-03-02T09:29:10.139Z,-2.75
2018-03-02T09:30:10.237Z,-2.82
2018-03-02T09:31:10.098Z,-2.78
2018-03-02T09:32:10.128Z,-2.76
2018-03-02T09:33:10.152Z,-2.72
2018-03-02T09:34:10.104Z,-2.69
2018-03-02T09:35:10.112Z,-2.62
2018-03-02T09:36:10.107Z,-2.58
2018-03-02T09:37:10.131Z,-2.62
2018-03-02T09:38:10.109Z,-2.58
2018-03-02T09:39:10.126Z,-2.57
2018-03-02T09:40:10.120Z,-2.51
2018-03-02T09:41:10.130Z,-2.47
2018-03-02T09:42:10.159Z,-2.44
2018-03-02T09:43:10.141Z,-2.6
2018-03-02T09:44:10.137Z,-2.62
2018-03-02T09:45:10.162Z,-2.61
2018-03-02T09:46:10.137Z,-2.54
2018-03-02T09:47:10.160Z,-2.5
2018-03-02T09:48:10.178Z,-2.51
2018-03-02T09:49:10.147Z,-2.48
2018-03-02T09:50:10.150Z,-2.47
2018-03-02T09:51:10.151Z,-2.47
2018-03-02T09:52:10.231Z,-2.44
2018-03-02T09:53:10.182Z,-2.41
2018-03-02T09:54:10.176Z,-2.43
2018-03-02T09:55:10.162Z,-2.41
2018-03-02T09:56:10.170Z,-2.37
2018-03-02T09:57:10.170Z,-2.38
2018-03-02T09:58:10.362Z,-2.41
2018-03-02T09:59:10.225Z,-2.5
2018-03-02T10:00:10.507Z,-2.48
2018-03-02T10:01:10.182Z,-2.51
2018-03-02T10:02:10.190Z,-2.54
2018-03-02T10:03:10.363Z,-2.54
2018-03-02T10:04:10.189Z,-2.57
2018-03-02T10:05:10.197Z,-2.51
2018-03-02T10:06:10.215Z,-2.47
2018-03-02T10:07:10.208Z,-2.34
2018-03-02T10:08:10.212Z,-2.2
2018-03-02T10:09:10.242Z,-2.1
2018-03-02T10:10:10.208Z,-2.02
2018-03-02T10:11:10.213Z,-1.99
2018-03-02T10:12:10.218Z,-1.86
2018-03-02T10:13:10.242Z,-1.79
2018-03-02T10:14:10.254Z,-1.78
2018-03-02T10:15:10.234Z,-1.74
2018-03-02T10:16:10.241Z,-1.75
2018-03-02T10:17:10.239Z,-1.82
2018-03-02T10:18:10.332Z,-1.79
2018-03-02T10:19:10.248Z,-1.74
2018-03-02T10:20:10.243Z,-1.71
2018-03-02T10:21:10.256Z,-1.7
2018-03-02T10:22:10.262Z,-1.65
2018-03-02T10:23:10.263Z,-1.65
2018-03-02T10:24:10.323Z,-1.68
2018-03-02T10:25:10.270Z,-1.68
2018-03-02T10:26:10.264Z,-1.61
2018-03-02T10:27:10.285Z,-1.58
2018-03-02T10:28:10.342Z,-1.63
2018-03-02T10:29:10.304Z,-1.61
2018-03-02T10:30:10.293Z,-1.58
2018-03-02T10:31:10.297Z,-1.55
2018-03-02T10:32:10.303Z,-1.48
2018-03-02T10:33:13.439Z,-1.46
2018-03-02T10:34:10.307Z,-1.39
2018-03-02T10:35:10.306Z,-1.36
2018-03-02T10:36:10.312Z,-1.37
2018-03-02T10:37:10.325Z,-1.3
2018-03-02T10:38:10.598Z,-1.23
2018-03-02T10:39:10.354Z,-1.33
2018-03-02T10:40:10.323Z,-1.35
2018-03-02T10:41:10.325Z,-1.26
2018-03-02T10:42:10.374Z,-1.23
2018-03-02T10:43:10.364Z,-1.26
2018-03-02T10:44:10.339Z,-1.33
2018-03-02T10:45:10.355Z,-1.29
2018-03-02T10:46:10.360Z,-1.29
2018-03-02T10:47:10.360Z,-1.27
2018-03-02T10:48:10.385Z,-1.25
2018-03-02T10:49:10.366Z,-1.26
2018-03-02T10:50:10.374Z,-1.39
2018-03-02T10:51:10.368Z,-1.37
2018-03-02T10:52:10.375Z,-1.33
2018-03-02T10:53:10.465Z,-1.25
2018-03-02T10:54:10.468Z,-1.27
2018-03-02T10:55:10.408Z,-1.27
2018-03-02T10:56:10.509Z,-1.29
2018-03-02T10:57:10.387Z,-1.25
2018-03-02T10:58:10.405Z,-1.22
2018-03-02T10:59:10.380Z,-1.23
2018-03-02T11:00:10.391Z,-1.22
2018-03-02T11:01:10.398Z,-1.16
2018-03-02T11:02:10.408Z,-1.19
2018-03-02T11:03:10.430Z,-1.26
2018-03-02T11:04:10.403Z,-1.29
2018-03-02T11:05:10.410Z,-1.32
2018-03-02T11:06:10.412Z,-1.27
2018-03-02T11:07:10.425Z,-1.29
2018-03-02T11:08:10.642Z,-1.29
2018-03-02T11:09:10.417Z,-1.29
2018-03-02T11:10:10.424Z,-1.26
2018-03-02T11:11:10.419Z,-1.32
2018-03-02T11:12:10.424Z,-1.23
2018-03-02T11:13:10.461Z,-1.16
2018-03-02T11:14:10.436Z,-1.11
2018-03-02T11:15:10.476Z,-1.03
2018-03-02T11:16:10.445Z,-1.02
2018-03-02T11:17:10.459Z,-0.95
2018-03-02T11:18:10.461Z,-0.96
2018-03-02T11:19:10.448Z,-0.92
2018-03-02T11:20:10.452Z,-0.92
2018-03-02T11:21:10.458Z,-0.89
2018-03-02T11:22:10.509Z,-0.89
2018-03-02T11:23:10.602Z,-0.85
2018-03-02T11:24:10.475Z,-0.84
2018-03-02T11:25:10.479Z,-0.82
2018-03-02T11:26:10.472Z,-0.78
2018-03-02T11:27:10.472Z,-0.75
2018-03-02T11:28:10.503Z,-0.75
2018-03-02T11:29:10.471Z,-0.73
2018-03-02T11:30:10.468Z,-0.7
2018-03-02T11:31:10.484Z,-0.65
2018-03-02T11:32:10.496Z,-0.64
2018-03-02T11:33:10.711Z,-0.6
2018-03-02T11:34:10.483Z,-0.65
2018-03-02T11:35:10.486Z,-0.65
2018-03-02T11:36:10.490Z,-0.64
2018-03-02T11:37:10.498Z,-0.61
2018-03-02T11:38:10.506Z,-0.58
2018-03-02T11:39:10.492Z,-0.56
2018-03-02T11:40:10.509Z,-0.47
2018-03-02T11:41:10.505Z,-0.49
2018-03-02T11:42:10.517Z,-0.46
2018-03-02T11:43:10.535Z,-0.43
2018-03-02T11:44:10.544Z,-0.45
2018-03-02T11:45:10.526Z,-0.4
2018-03-02T11:46:10.520Z,-0.39
2018-03-02T11:47:10.528Z,-0.33
2018-03-02T11:48:10.565Z,-0.29
2018-03-02T11:49:10.544Z,-0.29
2018-03-02T11:50:10.542Z,-0.32
2018-03-02T11:51:10.530Z,-0.32
2018-03-02T11:52:10.533Z,-0.45
2018-03-02T11:53:10.545Z,-0.35
2018-03-02T11:54:10.582Z,-0.3
2018-03-02T11:55:10.558Z,-0.25
2018-03-02T11:56:10.556Z,-0.23
2018-03-02T11:57:10.553Z,-0.23
2018-03-02T11:58:10.545Z,-0.18
2018-03-02T11:59:10.579Z,-0.15
2018-03-02T12:00:10.584Z,-0.09
2018-03-02T12:01:10.567Z,-0.09
2018-03-02T12:02:10.567Z,-0.08
2018-03-02T12:03:10.570Z,-0.05
2018-03-02T12:04:10.564Z,-0.07
2018-03-02T12:05:10.602Z,-0.02
2018-03-02T12:06:10.571Z,-0.02
2018-03-02T12:07:10.586Z,-0.05
2018-03-02T12:08:10.576Z,-0.04
2018-03-02T12:09:10.582Z,0.03
2018-03-02T12:10:10.615Z,0.01
2018-03-02T12:11:10.594Z,0.02
2018-03-02T12:12:10.578Z,-0.02
2018-03-02T12:13:10.591Z,0.05
2018-03-02T12:14:10.595Z,0.06
2018-03-02T12:15:10.636Z,0.03
2018-03-02T12:16:10.610Z,0.06
2018-03-02T12:17:10.628Z,0.09
2018-03-02T12:18:10.609Z,0.12
2018-03-02T12:19:10.613Z,0.15
2018-03-02T12:20:10.613Z,0.16
2018-03-02T12:21:10.625Z,0.16
2018-03-02T12:22:10.649Z,0.15
2018-03-02T12:23:10.621Z,0.19
2018-03-02T12:24:10.628Z,0.22
2018-03-02T12:25:10.792Z,0.27
2018-03-02T12:26:10.621Z,0.26
2018-03-02T12:27:10.646Z,0.3
2018-03-02T12:28:10.634Z,0.29
2018-03-02T12:29:10.640Z,0.32
2018-03-02T12:30:10.746Z,0.34
2018-03-02T12:31:10.822Z,0.34
2018-03-02T12:32:10.663Z,0.38
2018-03-02T12:33:10.776Z,0.38
2018-03-02T12:34:10.674Z,0.4
2018-03-02T12:35:10.687Z,0.44
2018-03-02T12:36:10.683Z,0.43
2018-03-02T12:37:10.796Z,0.43
2018-03-02T12:38:10.687Z,0.46
2018-03-02T12:39:10.716Z,0.47
2018-03-02T12:40:10.715Z,0.46
2018-03-02T12:41:10.725Z,0.47
2018-03-02T12:42:10.725Z,0.48
2018-03-02T12:43:10.915Z,0.53
2018-03-02T12:44:10.749Z,0.46
2018-03-02T12:45:11.642Z,0.47
2018-03-02T12:46:10.772Z,0.47
2018-03-02T12:47:10.728Z,0.5
2018-03-02T12:48:10.786Z,0.5
2018-03-02T12:49:10.921Z,0.48
2018-03-02T12:50:10.756Z,0.53
2018-03-02T12:51:10.806Z,0.57
2018-03-02T12:52:10.716Z,0.57
2018-03-02T12:53:10.730Z,0.63
2018-03-02T12:54:10.713Z,0.64
2018-03-02T12:55:10.944Z,0.61
2018-03-02T12:56:10.716Z,0.61
2018-03-02T12:57:10.750Z,0.54
2018-03-02T12:58:10.734Z,0.53
2018-03-02T12:59:10.723Z,0.55
2018-03-02T13:00:10.762Z,0.6
2018-03-02T13:01:10.735Z,0.61
2018-03-02T13:02:10.744Z,0.64
2018-03-02T13:03:10.786Z,0.65
2018-03-02T13:04:10.754Z,0.64
2018-03-02T13:05:10.755Z,0.67
2018-03-02T13:06:10.809Z,0.67
2018-03-02T13:07:10.747Z,0.61